createdAt,value
2022-09-10T00:00:25.872Z,7.20
2022-09-10T00:02:54.372Z,6.90
2022-09-10T00:05:27.772Z,6.80
2022-09-10T00:07:56.017Z,7.70
2022-09-10T00:10:26.420Z,7.90
2022-09-10T00:12:56.244Z,7.80
2022-09-10T00:15:27.117Z,9.20
2022-09-10T00:17:57.348Z,7.63
2022-09-10T00:20:27.132Z,6.77
2022-09-10T00:22:56.395Z,7.47
2022-09-10T00:25:24.893Z,8.60
2022-09-10T00:27:58.184Z,8.33
2022-09-10T00:30:28.327Z,8.43
2022-09-10T00:32:57.245Z,8.57
2022-09-10T00:35:25.316Z,8.80
2022-09-10T00:37:54.324Z,8.17
2022-09-10T00:40:22.306Z,8.40
2022-09-10T00:42:54.320Z,7.70
2022-09-10T00:45:25.494Z,7.67
2022-09-10T00:48:03.458Z,7.57
2022-09-10T00:50:35.956Z,7.60
2022-09-10T00:53:10.374Z,7.37
2022-09-10T00:55:42.139Z,7.83
2022-09-10T00:58:36.358Z,8.07
2022-09-10T01:01:04.848Z,7.50
2022-09-10T01:03:34.364Z,7.30
2022-09-10T01:06:06.418Z,7.40
2022-09-10T01:08:34.568Z,7.37
2022-09-10T01:11:14.321Z,7.23
2022-09-10T01:13:57.044Z,7.00
2022-09-10T01:16:36.295Z,7.23
2022-09-10T01:19:19.448Z,8.30
2022-09-10T01:21:58.736Z,7.83
2022-09-10T01:24:55.700Z,7.27
2022-09-10T01:27:41.399Z,7.17
2022-09-10T01:30:14.714Z,7.60
2022-09-10T01:32:59.411Z,7.90
2022-09-10T01:35:40.258Z,7.70
2022-09-10T01:38:14.488Z,8.40
2022-09-10T01:40:46.462Z,8.03
2022-09-10T01:43:22.651Z,7.73
2022-09-10T01:46:11.348Z,8.60
2022-09-10T01:48:55.998Z,9.53
2022-09-10T01:51:32.017Z,12.17
2022-09-10T01:54:21.274Z,12.30
2022-09-10T01:56:54.434Z,10.07
2022-09-10T01:59:38.322Z,8.33
2022-09-10T02:02:14.289Z,8.40
2022-09-10T02:04:46.380Z,9.20
2022-09-10T02:07:18.404Z,9.00
2022-09-10T02:09:50.440Z,9.07
2022-09-10T02:12:23.784Z,8.93
2022-09-10T02:15:14.340Z,8.53
2022-09-10T02:17:53.671Z,8.90
2022-09-10T02:20:22.724Z,8.70
2022-09-10T02:22:59.149Z,8.87
2022-09-10T02:25:35.316Z,9.50
2022-09-10T02:28:05.493Z,7.80
2022-09-10T02:30:39.308Z,7.70
2022-09-10T02:33:09.782Z,8.27
2022-09-10T02:35:38.423Z,7.63
2022-09-10T02:38:06.816Z,8.40
2022-09-10T02:40:38.528Z,7.80
2022-09-10T02:43:10.424Z,7.87
2022-09-10T02:45:42.098Z,10.20
2022-09-10T02:48:14.404Z,8.70
2022-09-10T02:50:46.554Z,7.87
2022-09-10T02:53:15.409Z,7.80
2022-09-10T02:55:46.658Z,9.07
2022-09-10T02:58:19.337Z,7.60
2022-09-10T03:00:49.447Z,7.37
2022-09-10T03:03:22.273Z,7.47
2022-09-10T03:05:53.473Z,9.00
2022-09-10T03:08:21.521Z,8.00
2022-09-10T03:10:50.329Z,8.43
2022-09-10T03:13:19.025Z,8.03
2022-09-10T03:15:50.355Z,8.00
2022-09-10T03:18:23.006Z,8.50
2022-09-10T03:20:52.339Z,8.73
2022-09-10T03:23:20.751Z,7.60
2022-09-10T03:25:50.045Z,8.07
2022-09-10T03:28:24.530Z,7.90
2022-09-10T03:30:54.625Z,7.70
2022-09-10T03:33:22.711Z,7.70
2022-09-10T03:35:56.344Z,7.27
2022-09-10T03:38:29.467Z,7.33
2022-09-10T03:40:59.117Z,7.03
2022-09-10T03:43:27.279Z,7.10
2022-09-10T03:45:58.461Z,7.00
2022-09-10T03:48:27.438Z,7.00
2022-09-10T03:50:56.406Z,7.60
2022-09-10T03:53:25.437Z,7.43
2022-09-10T03:55:55.763Z,10.00
2022-09-10T03:58:23.885Z,8.70
2022-09-10T04:00:53.557Z,7.57
2022-09-10T04:03:23.397Z,8.33
2022-09-10T04:05:53.084Z,7.37
2022-09-10T04:08:22.445Z,8.20
2022-09-10T04:10:57.103Z,7.60
2022-09-10T04:13:26.507Z,7.73
2022-09-10T04:15:58.273Z,8.13
2022-09-10T04:18:34.219Z,8.23
2022-09-10T04:21:10.281Z,8.07
2022-09-10T04:23:42.368Z,7.77
2022-09-10T04:26:15.577Z,8.27
2022-09-10T04:28:48.086Z,23.27
2022-09-10T04:31:18.425Z,10.97
2022-09-10T04:33:51.502Z,7.70
2022-09-10T04:36:25.709Z,8.33
2022-09-10T04:38:59.968Z,7.70
2022-09-10T04:41:29.155Z,7.67
2022-09-10T04:43:57.236Z,8.00
2022-09-10T04:46:25.535Z,8.40
2022-09-10T04:49:00.330Z,7.73
2022-09-10T04:51:29.573Z,7.83
2022-09-10T04:53:59.440Z,7.27
2022-09-10T04:56:33.798Z,7.20
2022-09-10T04:59:02.470Z,7.23
2022-09-10T05:01:35.383Z,8.53
2022-09-10T05:04:05.324Z,7.03
2022-09-10T05:06:38.458Z,6.90
2022-09-10T05:09:11.516Z,7.87
2022-09-10T05:12:05.247Z,7.83
2022-09-10T05:14:34.532Z,7.30
2022-09-10T05:17:06.986Z,8.07
2022-09-10T05:19:37.498Z,7.70
2022-09-10T05:22:10.390Z,7.67
2022-09-10T05:24:39.131Z,7.53
2022-09-10T05:27:11.585Z,7.20
2022-09-10T05:29:39.797Z,7.00
2022-09-10T05:32:09.452Z,7.50
2022-09-10T05:34:39.843Z,6.57
2022-09-10T05:37:09.396Z,7.30
2022-09-10T05:39:39.591Z,6.90
2022-09-10T05:42:08.684Z,7.00
2022-09-10T05:44:38.906Z,7.90
2022-09-10T05:47:33.341Z,7.10
2022-09-10T05:50:04.390Z,7.03
2022-09-10T05:52:33.542Z,8.00
2022-09-10T05:55:05.394Z,6.97
2022-09-10T05:57:34.309Z,7.23
2022-09-10T06:00:06.398Z,7.40
2022-09-10T06:02:46.583Z,6.50
2022-09-10T06:05:30.547Z,6.80
2022-09-10T06:07:59.482Z,7.73
2022-09-10T06:10:28.113Z,8.30
2022-09-10T06:12:57.503Z,7.07
2022-09-10T06:15:26.447Z,7.30
2022-09-10T06:17:56.667Z,6.73
2022-09-10T06:20:25.516Z,7.00
2022-09-10T06:22:56.518Z,6.77
2022-09-10T06:25:25.148Z,6.50
2022-09-10T06:27:53.604Z,7.30
2022-09-10T06:30:26.569Z,6.00
2022-09-10T06:32:55.537Z,6.67
2022-09-10T06:35:25.452Z,6.43
2022-09-10T06:37:56.073Z,7.03
2022-09-10T06:40:27.691Z,7.07
2022-09-10T06:42:57.603Z,7.33
2022-09-10T06:45:45.542Z,7.43
2022-09-10T06:48:38.734Z,7.83
2022-09-10T06:51:12.689Z,8.30
2022-09-10T06:53:43.481Z,7.83
2022-09-10T06:56:16.261Z,8.23
2022-09-10T06:58:45.807Z,8.67
2022-09-10T07:01:18.930Z,8.03
2022-09-10T07:04:00.631Z,8.33
2022-09-10T07:06:34.456Z,8.43
2022-09-10T07:09:22.540Z,7.87
2022-09-10T07:12:00.095Z,9.53
2022-09-10T07:14:33.302Z,8.30
2022-09-10T07:17:06.404Z,9.40
2022-09-10T07:19:39.794Z,8.87
2022-09-10T07:22:21.641Z,9.27
2022-09-10T07:24:51.526Z,8.37
2022-09-10T07:27:48.599Z,8.23
2022-09-10T07:30:16.714Z,8.90
2022-09-10T07:32:48.973Z,9.50
2022-09-10T07:35:19.171Z,10.80
2022-09-10T07:37:49.598Z,9.77
2022-09-10T07:40:19.923Z,9.03
2022-09-10T07:42:52.397Z,8.27
2022-09-10T07:45:22.451Z,8.17
2022-09-10T07:47:55.654Z,7.67
2022-09-10T07:50:26.570Z,8.07
2022-09-10T07:52:57.123Z,7.00
2022-09-10T07:55:29.126Z,7.97
2022-09-10T07:58:00.099Z,8.50
2022-09-10T08:00:30.965Z,10.47
2022-09-10T08:03:03.953Z,7.60
2022-09-10T08:05:32.184Z,7.37
2022-09-10T08:08:02.610Z,8.00
2022-09-10T08:10:32.582Z,7.93
2022-09-10T08:13:00.808Z,7.60
2022-09-10T08:15:29.527Z,8.73
2022-09-10T08:18:05.214Z,8.33
2022-09-10T08:20:33.658Z,7.97
2022-09-10T08:23:03.573Z,8.20
2022-09-10T08:25:36.641Z,8.10
2022-09-10T08:28:04.629Z,9.37
2022-09-10T08:30:33.608Z,7.70
2022-09-10T08:33:02.557Z,9.10
2022-09-10T08:35:32.271Z,8.83
2022-09-10T08:38:01.492Z,11.33
2022-09-10T08:40:33.580Z,8.87
2022-09-10T08:43:03.698Z,8.90
2022-09-10T08:45:34.759Z,9.17
2022-09-10T08:48:09.036Z,9.37
2022-09-10T08:50:45.184Z,7.80
2022-09-10T08:53:26.893Z,7.73
2022-09-10T08:56:02.664Z,8.10
2022-09-10T08:58:43.525Z,9.17
2022-09-10T09:01:21.029Z,9.50
2022-09-10T09:03:50.599Z,7.80
2022-09-10T09:06:30.319Z,8.57
2022-09-10T09:09:03.614Z,9.83
2022-09-10T09:11:47.615Z,8.60
2022-09-10T09:14:27.842Z,8.83
2022-09-10T09:17:17.950Z,8.67
2022-09-10T09:19:59.540Z,9.23
2022-09-10T09:22:40.008Z,9.07
2022-09-10T09:25:27.528Z,9.27
2022-09-10T09:27:59.528Z,8.67
2022-09-10T09:30:49.322Z,8.40
2022-09-10T09:33:23.680Z,8.60
2022-09-10T09:35:58.524Z,8.27
2022-09-10T09:38:33.657Z,9.30
2022-09-10T09:41:16.634Z,10.83
2022-09-10T09:43:54.275Z,9.30
2022-09-10T09:46:25.678Z,9.10
2022-09-10T09:49:02.706Z,8.83
2022-09-10T09:51:35.549Z,8.43
2022-09-10T09:54:46.750Z,8.10
2022-09-10T09:57:00.003Z,9.90
2022-09-10T09:59:30.407Z,8.97
2022-09-10T10:02:07.586Z,10.20
2022-09-10T10:04:41.495Z,8.93
2022-09-10T10:07:15.630Z,8.97
2022-09-10T10:09:45.906Z,8.60
2022-09-10T10:12:23.489Z,11.23
2022-09-10T10:14:52.271Z,19.57
2022-09-10T10:17:31.387Z,9.93
2022-09-10T10:20:09.734Z,9.63
2022-09-10T10:22:46.254Z,10.03
2022-09-10T10:25:41.637Z,8.93
2022-09-10T10:28:21.659Z,9.60
2022-09-10T10:30:54.847Z,8.47
2022-09-10T10:33:28.943Z,11.17
2022-09-10T10:36:06.668Z,9.53
2022-09-10T10:38:40.243Z,8.57
2022-09-10T10:41:41.243Z,9.93
2022-09-10T10:44:39.521Z,11.10
2022-09-10T10:47:30.415Z,11.93
2022-09-10T10:50:12.587Z,9.53
2022-09-10T10:52:50.127Z,8.87
2022-09-10T10:55:24.162Z,8.47
2022-09-10T10:58:07.506Z,7.63
2022-09-10T11:00:42.091Z,6.90
2022-09-10T11:03:21.330Z,7.43
2022-09-10T11:05:56.073Z,7.40
2022-09-10T11:08:31.704Z,6.63
2022-09-10T11:11:10.156Z,7.37
2022-09-10T11:13:44.039Z,7.43
2022-09-10T11:16:20.271Z,6.83
2022-09-10T11:18:54.744Z,7.37
2022-09-10T11:21:31.298Z,7.70
2022-09-10T11:24:03.661Z,8.33
2022-09-10T11:26:37.840Z,8.60
2022-09-10T11:29:25.353Z,7.57
2022-09-10T11:32:04.606Z,17.53
2022-09-10T11:34:39.105Z,10.83
2022-09-10T11:37:16.461Z,15.90
2022-09-10T11:39:48.166Z,9.37
2022-09-10T11:42:21.742Z,8.13
2022-09-10T11:44:58.612Z,7.67
2022-09-10T11:47:32.677Z,7.53
2022-09-10T11:50:07.609Z,7.77
2022-09-10T11:52:38.158Z,8.20
2022-09-10T11:55:08.645Z,7.90
2022-09-10T11:57:47.806Z,6.90
2022-09-10T12:00:17.989Z,8.13
2022-09-10T12:03:21.809Z,8.27
2022-09-10T12:06:03.782Z,8.90
2022-09-10T12:08:58.404Z,7.43
2022-09-10T12:11:35.684Z,7.27
2022-09-10T12:14:08.477Z,7.33
2022-09-10T12:16:39.392Z,9.47
2022-09-10T12:19:22.234Z,25.03
2022-09-10T12:21:54.244Z,12.00
2022-09-10T12:24:32.823Z,7.40
2022-09-10T12:27:02.692Z,6.87
2022-09-10T12:29:40.848Z,6.10
2022-09-10T12:32:29.718Z,6.50
2022-09-10T12:35:46.651Z,6.60
2022-09-10T12:38:56.748Z,7.10
2022-09-10T12:42:01.752Z,7.00
2022-09-10T12:44:47.728Z,6.03
2022-09-10T12:47:46.812Z,7.83
2022-09-10T12:50:35.458Z,7.90
2022-09-10T12:53:51.332Z,7.37
2022-09-10T12:56:34.712Z,7.90
2022-09-10T12:59:29.866Z,7.63
2022-09-10T13:02:01.936Z,7.43
2022-09-10T13:04:34.918Z,7.07
2022-09-10T13:07:07.671Z,8.20
2022-09-10T13:09:40.730Z,7.53
2022-09-10T13:12:19.748Z,7.30
2022-09-10T13:14:52.817Z,8.27
2022-09-10T13:17:41.570Z,8.60
2022-09-10T13:20:30.525Z,9.20
2022-09-10T13:23:06.008Z,9.13
2022-09-10T13:25:42.754Z,8.90
2022-09-10T13:28:48.670Z,8.77
2022-09-10T13:31:24.755Z,12.93
2022-09-10T13:34:22.670Z,21.10
2022-09-10T13:37:14.743Z,10.90
2022-09-10T13:40:13.717Z,8.47
2022-09-10T13:42:59.437Z,8.03
2022-09-10T13:45:30.782Z,8.07
2022-09-10T13:48:06.098Z,7.40
2022-09-10T13:50:39.747Z,8.13
2022-09-10T13:53:10.751Z,7.20
2022-09-10T13:55:50.360Z,7.80
2022-09-10T13:58:28.470Z,7.97
2022-09-10T14:00:58.563Z,8.13
2022-09-10T14:03:32.790Z,10.23
2022-09-10T14:06:05.164Z,24.73
2022-09-10T14:08:38.680Z,14.70
2022-09-10T14:11:15.567Z,8.93
2022-09-10T14:13:48.748Z,8.90
2022-09-10T14:16:26.176Z,8.73
2022-09-10T14:19:01.940Z,9.43
2022-09-10T14:21:30.392Z,8.53
2022-09-10T14:24:04.096Z,8.63
2022-09-10T14:26:34.441Z,8.50
2022-09-10T14:29:04.798Z,9.37
2022-09-10T14:31:36.803Z,8.83
2022-09-10T14:34:27.140Z,8.07
2022-09-10T14:36:55.769Z,8.40
2022-09-10T14:39:27.965Z,8.60
2022-09-10T14:42:25.149Z,8.73
2022-09-10T14:44:53.691Z,8.33
2022-09-10T14:47:34.946Z,8.40
2022-09-10T14:50:31.129Z,7.87
2022-09-10T14:52:59.452Z,9.23
2022-09-10T14:55:29.693Z,8.70
2022-09-10T14:58:01.879Z,9.23
2022-09-10T15:00:30.852Z,8.67
2022-09-10T15:03:03.996Z,11.73
2022-09-10T15:05:33.292Z,8.80
2022-09-10T15:08:04.900Z,9.83
2022-09-10T15:10:32.858Z,10.73
2022-09-10T15:13:03.471Z,10.27
2022-09-10T15:15:31.470Z,10.70
2022-09-10T15:17:59.923Z,9.77
2022-09-10T15:20:31.798Z,10.30
2022-09-10T15:23:01.992Z,9.73
2022-09-10T15:25:39.807Z,11.23
2022-09-10T15:28:08.845Z,10.73
2022-09-10T15:30:39.490Z,11.23
2022-09-10T15:33:09.063Z,11.20
2022-09-10T15:35:39.984Z,11.23
2022-09-10T15:38:09.517Z,10.80
2022-09-10T15:40:37.528Z,10.33
2022-09-10T15:43:08.338Z,17.03
2022-09-10T15:45:37.212Z,14.37
2022-09-10T15:48:05.644Z,11.30
2022-09-10T15:50:35.992Z,11.23
2022-09-10T15:53:11.851Z,11.17
2022-09-10T15:55:44.124Z,13.70
2022-09-10T15:58:12.724Z,23.07
2022-09-10T16:00:43.902Z,12.77
2022-09-10T16:03:12.747Z,11.43
2022-09-10T16:05:40.817Z,12.03
2022-09-10T16:08:11.785Z,10.60
2022-09-10T16:10:42.189Z,12.47
2022-09-10T16:13:11.510Z,12.50
2022-09-10T16:15:39.537Z,12.17
2022-09-10T16:18:07.834Z,11.63
2022-09-10T16:20:38.583Z,12.77
2022-09-10T16:23:07.461Z,11.63
2022-09-10T16:25:38.816Z,11.67
2022-09-10T16:28:10.007Z,12.10
2022-09-10T16:30:38.752Z,11.73
2022-09-10T16:33:07.922Z,12.20
2022-09-10T16:35:36.849Z,11.47
2022-09-10T16:38:07.656Z,14.27
2022-09-10T16:40:36.723Z,11.40
2022-09-10T16:43:04.867Z,12.07
2022-09-10T16:45:34.315Z,12.37
2022-09-10T16:48:04.402Z,11.97
2022-09-10T16:50:33.821Z,12.20
2022-09-10T16:53:02.860Z,12.23
2022-09-10T16:55:31.148Z,12.53
2022-09-10T16:58:04.001Z,12.07
2022-09-10T17:00:32.873Z,14.27
2022-09-10T17:03:03.771Z,19.00
2022-09-10T17:05:31.776Z,14.27
2022-09-10T17:08:01.047Z,14.10
2022-09-10T17:10:32.974Z,13.53
2022-09-10T17:13:01.963Z,12.93
2022-09-10T17:15:30.490Z,13.67
2022-09-10T17:17:58.931Z,12.80
2022-09-10T17:20:28.770Z,13.77
2022-09-10T17:23:00.229Z,13.77
2022-09-10T17:25:29.524Z,12.87
2022-09-10T17:27:59.514Z,13.07
2022-09-10T17:30:27.781Z,12.73
2022-09-10T17:32:56.882Z,14.10
2022-09-10T17:35:26.489Z,13.37
2022-09-10T17:37:56.856Z,14.00
2022-09-10T17:40:25.005Z,14.40
2022-09-10T17:42:55.052Z,21.87
2022-09-10T17:45:23.801Z,13.30
2022-09-10T17:47:55.521Z,11.93
2022-09-10T17:50:23.494Z,11.33
2022-09-10T17:52:55.452Z,11.03
2022-09-10T17:55:27.080Z,10.77
2022-09-10T17:57:56.896Z,10.60
2022-09-10T18:00:25.899Z,10.90
2022-09-10T18:02:54.947Z,13.67
2022-09-10T18:05:26.491Z,11.10
2022-09-10T18:07:57.890Z,10.50
2022-09-10T18:10:30.148Z,10.17
2022-09-10T18:13:00.473Z,9.57
2022-09-10T18:15:31.254Z,9.73
2022-09-10T18:18:00.846Z,21.70
2022-09-10T18:20:29.380Z,17.77
2022-09-10T18:22:59.907Z,10.87
2022-09-10T18:25:33.010Z,9.57
2022-09-10T18:28:06.906Z,9.27
2022-09-10T18:30:35.910Z,8.93
2022-09-10T18:33:06.400Z,10.17
2022-09-10T18:35:38.843Z,10.47
2022-09-10T18:38:07.811Z,9.57
2022-09-10T18:40:37.931Z,11.17
2022-09-10T18:43:09.077Z,11.20
2022-09-10T18:45:37.074Z,8.27
2022-09-10T18:48:05.927Z,7.70
2022-09-10T18:50:34.643Z,8.80
2022-09-10T18:53:02.976Z,6.63
2022-09-10T18:55:31.983Z,8.77
2022-09-10T18:58:03.494Z,11.60
2022-09-10T19:00:32.719Z,5.20
2022-09-10T19:03:00.925Z,5.13
2022-09-10T19:05:33.023Z,5.60
2022-09-10T19:08:01.973Z,5.07
2022-09-10T19:10:30.926Z,5.00
2022-09-10T19:13:00.070Z,5.07
2022-09-10T19:15:29.840Z,11.30
2022-09-10T19:18:05.772Z,9.40
2022-09-10T19:20:37.946Z,5.77
2022-09-10T19:23:09.564Z,5.27
2022-09-10T19:25:41.841Z,6.80
2022-09-10T19:28:09.836Z,5.70
2022-09-10T19:30:40.915Z,5.97
2022-09-10T19:33:09.926Z,5.73
2022-09-10T19:35:42.278Z,5.57
2022-09-10T19:38:33.967Z,4.80
2022-09-10T19:41:07.946Z,4.83
2022-09-10T19:43:38.491Z,10.20
2022-09-10T19:46:12.585Z,6.07
2022-09-10T19:48:42.302Z,5.97
2022-09-10T19:51:13.518Z,5.97
2022-09-10T19:53:42.988Z,6.30
2022-09-10T19:56:19.702Z,6.40
2022-09-10T19:58:51.084Z,5.40
2022-09-10T20:01:23.525Z,6.80
2022-09-10T20:03:53.581Z,5.77
2022-09-10T20:06:25.890Z,5.23
2022-09-10T20:08:57.947Z,5.77
2022-09-10T20:11:30.363Z,5.60
2022-09-10T20:14:00.669Z,5.23
2022-09-10T20:16:30.917Z,5.97
2022-09-10T20:18:59.950Z,8.43
2022-09-10T20:21:31.755Z,5.60
2022-09-10T20:24:00.964Z,7.70
2022-09-10T20:26:31.870Z,6.20
2022-09-10T20:29:01.974Z,5.83
2022-09-10T20:31:37.101Z,5.73
2022-09-10T20:34:07.048Z,6.77
2022-09-10T20:36:37.996Z,5.73
2022-09-10T20:39:07.422Z,5.80
2022-09-10T20:41:36.009Z,5.47
2022-09-10T20:44:04.165Z,5.10
2022-09-10T20:46:34.482Z,4.73
2022-09-10T20:49:03.900Z,5.47
2022-09-10T20:51:34.239Z,5.30
2022-09-10T20:54:02.902Z,5.03
2022-09-10T20:56:31.896Z,5.10
2022-09-10T20:59:02.901Z,5.47
2022-09-10T21:01:32.140Z,6.23
2022-09-10T21:04:04.223Z,6.43
2022-09-10T21:06:35.276Z,7.57
2022-09-10T21:09:07.050Z,7.07
2022-09-10T21:11:36.220Z,7.10
2022-09-10T21:14:06.517Z,7.17
2022-09-10T21:16:36.071Z,7.33
2022-09-10T21:19:08.553Z,6.70
2022-09-10T21:21:39.399Z,6.37
2022-09-10T21:24:09.899Z,7.53
2022-09-10T21:26:43.500Z,6.97
2022-09-10T21:29:16.142Z,7.83
2022-09-10T21:31:45.420Z,7.60
2022-09-10T21:34:15.323Z,7.03
2022-09-10T21:36:45.270Z,7.03
2022-09-10T21:39:15.994Z,8.73
2022-09-10T21:41:46.013Z,9.30
2022-09-10T21:44:18.612Z,9.97
2022-09-10T21:46:51.540Z,9.40
2022-09-10T21:49:21.310Z,7.60
2022-09-10T21:51:50.112Z,8.37
2022-09-10T21:54:20.737Z,8.57
2022-09-10T21:56:50.007Z,7.70
2022-09-10T21:59:20.472Z,8.40
2022-09-10T22:01:50.168Z,13.80
2022-09-10T22:04:22.417Z,8.07
2022-09-10T22:06:58.072Z,7.07
2022-09-10T22:09:26.402Z,6.43
2022-09-10T22:11:56.690Z,10.53
2022-09-10T22:14:25.899Z,6.80
2022-09-10T22:16:56.115Z,6.80
2022-09-10T22:19:25.894Z,7.63
2022-09-10T22:21:56.874Z,7.43
2022-09-10T22:24:26.097Z,7.80
2022-09-10T22:26:55.159Z,7.07
2022-09-10T22:29:25.253Z,6.83
2022-09-10T22:31:53.610Z,7.57
2022-09-10T22:34:22.555Z,7.80
2022-09-10T22:36:51.628Z,6.87
2022-09-10T22:39:23.215Z,7.50
2022-09-10T22:41:53.073Z,7.07
2022-09-10T22:44:23.193Z,7.20
2022-09-10T22:46:52.182Z,7.93
2022-09-10T22:49:20.952Z,10.37
2022-09-10T22:51:49.505Z,7.60
2022-09-10T22:54:19.681Z,8.07
2022-09-10T22:56:50.220Z,8.40
2022-09-10T22:59:18.217Z,7.73
2022-09-10T23:01:48.390Z,7.67
2022-09-10T23:04:18.099Z,7.90
2022-09-10T23:06:47.621Z,8.20
2022-09-10T23:09:17.943Z,9.63
2022-09-10T23:11:47.038Z,10.93
2022-09-10T23:14:19.308Z,10.03
2022-09-10T23:16:49.959Z,11.97
2022-09-10T23:19:23.356Z,11.03
2022-09-10T23:21:53.312Z,10.90
2022-09-10T23:24:24.269Z,10.60
2022-09-10T23:26:53.229Z,11.20
2022-09-10T23:29:24.169Z,11.33
2022-09-10T23:31:53.488Z,12.17
2022-09-10T23:34:22.557Z,12.53
2022-09-10T23:36:51.549Z,12.53
2022-09-10T23:39:21.979Z,12.43
2022-09-10T23:41:52.096Z,15.67
2022-09-10T23:44:20.477Z,17.43
2022-09-10T23:46:51.080Z,13.87
2022-09-10T23:49:20.078Z,13.77
2022-09-10T23:51:49.044Z,13.10
2022-09-10T23:54:18.095Z,12.40
2022-09-10T23:56:47.479Z,13.87
2022-09-10T23:59:16.364Z,14.07
